NDF7516 EDDM-KMIA
Flight info
| Callsign | NDF7516 |
|---|---|
| Flight time | N/A |
| Altitude | 34000 |
| Route | GIVMI1N/26R GIVMI Y101 INBED DCT REKDI DCT LOHRE DCT ADKUV DCT DENUT L610 KOPUL DCT ENHAQ DCT GAJIT DCT BAPHU DCT ARKIL/M084F340 DCT SOMAX/M084F360 DCT 51N020W 51N030W 51N040W 50N050W DCT ELSIR/N0499F380 N402C ALLEX DCT FOXBO DCT RIFLE DCT HEADI Q97 KALDA Q101 PRANK/N0484F400 Q101 SKARP Y313 HOAGG BNFSH3 |
| Aircraft | A35K/H-SDE2E3GHIJ3J4J5LM1ORWXY/LB1D1 |
Departure
| Time | N/A |
|---|---|
| Airport | Munich Airport (EDDM) |
Arrival
| Time | 2026-05-04 16:53 |
|---|---|
| Airport | Miami International Airport (KMIA) |
| Time | Latitude | Longitude | Altitude | Speed | Heading |
|---|---|---|---|---|---|
| 2026-05-04 11:22 | 50.96008 | -40.68215 | 35962 ft | 465 kts | 266° |
| 2026-05-04 11:23 | 50.95377 | -40.78414 | 35960 ft | 465 kts | 266° |
| 2026-05-04 11:25 | 50.93098 | -41.14018 | 35944 ft | 463 kts | 266° |
| 2026-05-04 11:25 | 50.92428 | -41.24164 | 35943 ft | 463 kts | 266° |
| 2026-05-04 11:27 | 50.89318 | -41.69683 | 35934 ft | 461 kts | 266° |
| 2026-05-04 11:28 | 50.88608 | -41.79711 | 35925 ft | 461 kts | 266° |
| 2026-05-04 11:28 | 50.87884 | -41.89798 | 35926 ft | 460 kts | 266° |
| 2026-05-04 11:29 | 50.87152 | -41.99875 | 35924 ft | 461 kts | 265° |
| 2026-05-04 11:29 | 50.86415 | -42.09933 | 35916 ft | 459 kts | 265° |
| 2026-05-04 11:33 | 50.81020 | -42.79972 | 35898 ft | 458 kts | 264° |
| 2026-05-04 11:33 | 50.80218 | -42.89954 | 35887 ft | 457 kts | 264° |
| 2026-05-04 11:34 | 50.79405 | -42.99924 | 35887 ft | 457 kts | 264° |
| 2026-05-04 11:34 | 50.78584 | -43.09889 | 35885 ft | 457 kts | 264° |
| 2026-05-04 11:35 | 50.77756 | -43.19845 | 35881 ft | 457 kts | 264° |
| 2026-05-04 11:35 | 50.76920 | -43.29785 | 35880 ft | 456 kts | 264° |
| 2026-05-04 11:36 | 50.76082 | -43.39648 | 35876 ft | 456 kts | 264° |
| 2026-05-04 11:36 | 50.75231 | -43.49564 | 35863 ft | 456 kts | 264° |
| 2026-05-04 11:37 | 50.74372 | -43.59480 | 35875 ft | 455 kts | 264° |
| 2026-05-04 11:37 | 50.73505 | -43.69382 | 35865 ft | 455 kts | 263° |
| 2026-05-04 11:38 | 50.72629 | -43.79278 | 35850 ft | 455 kts | 263° |
| 2026-05-04 11:38 | 50.71745 | -43.89165 | 35850 ft | 455 kts | 263° |
| 2026-05-04 11:39 | 50.70853 | -43.99052 | 35859 ft | 455 kts | 263° |
| 2026-05-04 11:41 | 50.67670 | -44.33594 | 35844 ft | 455 kts | 263° |
| 2026-05-04 11:41 | 50.66742 | -44.43455 | 35830 ft | 455 kts | 263° |
| 2026-05-04 11:42 | 50.65805 | -44.53320 | 35833 ft | 455 kts | 262° |
| 2026-05-04 11:42 | 50.64859 | -44.63184 | 35826 ft | 455 kts | 262° |
| 2026-05-04 11:43 | 50.63905 | -44.73042 | 35822 ft | 455 kts | 262° |
| 2026-05-04 11:43 | 50.62948 | -44.82835 | 35819 ft | 455 kts | 262° |
| 2026-05-04 11:44 | 50.61975 | -44.92706 | 35813 ft | 456 kts | 262° |
| 2026-05-04 11:44 | 50.60993 | -45.02567 | 35813 ft | 456 kts | 262° |
| 2026-05-04 11:45 | 50.60002 | -45.12440 | 35805 ft | 456 kts | 262° |
| 2026-05-04 11:45 | 50.59005 | -45.22297 | 35804 ft | 456 kts | 261° |
| 2026-05-04 11:46 | 50.58005 | -45.32103 | 35803 ft | 456 kts | 261° |
| 2026-05-04 11:46 | 50.56990 | -45.41952 | 35796 ft | 456 kts | 261° |
| 2026-05-04 11:47 | 50.55965 | -45.51817 | 35740 ft | 456 kts | 261° |
| 2026-05-04 11:47 | 50.54933 | -45.61664 | 35667 ft | 457 kts | 261° |
| 2026-05-04 11:48 | 50.53892 | -45.71520 | 35655 ft | 457 kts | 261° |
| 2026-05-04 11:48 | 50.52845 | -45.81361 | 35658 ft | 457 kts | 261° |
| 2026-05-04 11:49 | 50.51786 | -45.91206 | 35655 ft | 457 kts | 261° |
| 2026-05-04 11:49 | 50.50720 | -46.01048 | 35647 ft | 457 kts | 261° |
| 2026-05-04 11:50 | 50.49646 | -46.10881 | 35632 ft | 457 kts | 260° |
| 2026-05-04 11:50 | 50.48562 | -46.20721 | 35634 ft | 457 kts | 260° |
| 2026-05-04 11:51 | 50.47655 | -46.28891 | 35632 ft | 457 kts | 260° |
| 2026-05-04 11:51 | 50.46554 | -46.38733 | 35635 ft | 458 kts | 260° |
| 2026-05-04 11:52 | 50.45446 | -46.48571 | 35629 ft | 458 kts | 260° |
| 2026-05-04 11:52 | 50.44330 | -46.58407 | 35622 ft | 458 kts | 260° |
| 2026-05-04 11:53 | 50.43207 | -46.68235 | 35631 ft | 458 kts | 259° |
| 2026-05-04 11:53 | 50.42073 | -46.78063 | 35622 ft | 458 kts | 259° |
| 2026-05-04 11:55 | 50.37447 | -47.17405 | 35618 ft | 459 kts | 259° |
| 2026-05-04 11:56 | 50.36277 | -47.27183 | 35608 ft | 460 kts | 259° |
| 2026-05-04 11:56 | 50.35086 | -47.37028 | 35607 ft | 460 kts | 258° |
| 2026-05-04 11:57 | 50.33885 | -47.46878 | 35608 ft | 460 kts | 258° |
| 2026-05-04 11:57 | 50.32679 | -47.56723 | 35608 ft | 461 kts | 258° |
| 2026-05-04 11:58 | 50.31466 | -47.66565 | 35604 ft | 461 kts | 258° |
| 2026-05-04 11:58 | 50.30241 | -47.76407 | 35598 ft | 461 kts | 258° |
| 2026-05-04 11:59 | 50.29010 | -47.86242 | 35598 ft | 461 kts | 258° |
| 2026-05-04 11:59 | 50.27766 | -47.96086 | 35599 ft | 461 kts | 258° |
| 2026-05-04 12:00 | 50.26513 | -48.05923 | 35599 ft | 461 kts | 258° |
| 2026-05-04 12:00 | 50.25256 | -48.15749 | 35591 ft | 461 kts | 257° |
| 2026-05-04 12:01 | 50.23999 | -48.25506 | 35589 ft | 461 kts | 257° |
| 2026-05-04 12:02 | 50.19502 | -48.59861 | 35589 ft | 461 kts | 257° |
| 2026-05-04 12:03 | 50.18198 | -48.69662 | 35580 ft | 461 kts | 257° |
| 2026-05-04 12:03 | 50.16883 | -48.79473 | 35580 ft | 461 kts | 257° |
| 2026-05-04 12:04 | 50.15561 | -48.89279 | 35580 ft | 462 kts | 256° |
| 2026-05-04 12:04 | 50.14233 | -48.99072 | 35581 ft | 461 kts | 256° |
| 2026-05-04 12:05 | 50.12906 | -49.08781 | 35535 ft | 462 kts | 256° |
| 2026-05-04 12:05 | 50.11557 | -49.18573 | 35533 ft | 462 kts | 256° |
| 2026-05-04 12:06 | 50.10202 | -49.28353 | 35533 ft | 462 kts | 256° |
| 2026-05-04 12:06 | 50.08841 | -49.38115 | 35532 ft | 461 kts | 255° |
| 2026-05-04 12:07 | 50.07471 | -49.47881 | 35533 ft | 461 kts | 255° |
| 2026-05-04 12:07 | 50.06093 | -49.57637 | 35533 ft | 462 kts | 255° |
| 2026-05-04 12:08 | 50.04706 | -49.67380 | 35523 ft | 461 kts | 255° |
| 2026-05-04 12:08 | 50.03324 | -49.77047 | 35523 ft | 461 kts | 255° |
| 2026-05-04 12:09 | 50.01918 | -49.86783 | 35525 ft | 461 kts | 255° |
| 2026-05-04 12:09 | 50.00506 | -49.96519 | 35524 ft | 461 kts | 254° |
| 2026-05-04 12:10 | 49.98579 | -50.05966 | 35517 ft | 459 kts | 246° |
| 2026-05-04 12:10 | 49.96360 | -50.15326 | 35514 ft | 465 kts | 245° |
| 2026-05-04 12:11 | 49.94056 | -50.24787 | 35503 ft | 469 kts | 245° |
| 2026-05-04 12:11 | 49.91749 | -50.34265 | 35504 ft | 470 kts | 245° |
| 2026-05-04 12:12 | 49.89442 | -50.43749 | 35501 ft | 470 kts | 245° |
| 2026-05-04 12:12 | 49.87129 | -50.53227 | 35501 ft | 470 kts | 245° |
| 2026-05-04 12:14 | 49.77767 | -50.91153 | 35512 ft | 473 kts | 244° |
| 2026-05-04 12:15 | 49.75397 | -51.00654 | 35516 ft | 473 kts | 244° |
| 2026-05-04 12:15 | 49.73016 | -51.10155 | 35500 ft | 474 kts | 244° |
| 2026-05-04 12:16 | 49.70623 | -51.19666 | 35502 ft | 475 kts | 244° |
| 2026-05-04 12:16 | 49.68219 | -51.29176 | 35499 ft | 475 kts | 244° |
| 2026-05-04 12:17 | 49.65804 | -51.38689 | 35510 ft | 476 kts | 244° |
| 2026-05-04 12:17 | 49.63377 | -51.48210 | 35507 ft | 477 kts | 244° |
| 2026-05-04 12:18 | 49.60944 | -51.57718 | 35505 ft | 477 kts | 244° |
| 2026-05-04 12:18 | 49.58514 | -51.67175 | 35506 ft | 478 kts | 244° |
| 2026-05-04 12:19 | 49.56061 | -51.76682 | 35492 ft | 478 kts | 244° |
| 2026-05-04 12:19 | 49.53600 | -51.86189 | 35494 ft | 478 kts | 244° |
| 2026-05-04 12:20 | 49.51124 | -51.95703 | 35544 ft | 478 kts | 243° |
| 2026-05-04 12:20 | 49.49888 | -52.00437 | 35859 ft | 475 kts | 243° |
| 2026-05-04 12:20 | 49.48683 | -52.05149 | 36229 ft | 472 kts | 244° |
| 2026-05-04 12:21 | 49.47514 | -52.09862 | 36436 ft | 473 kts | 245° |
| 2026-05-04 12:21 | 49.46356 | -52.14591 | 36637 ft | 473 kts | 245° |
| 2026-05-04 12:21 | 49.45201 | -52.19314 | 36904 ft | 470 kts | 245° |
| 2026-05-04 12:21 | 49.44049 | -52.23994 | 37260 ft | 466 kts | 245° |
| 2026-05-04 12:22 | 49.42899 | -52.28638 | 37468 ft | 466 kts | 245° |
| 2026-05-04 12:22 | 49.41739 | -52.33299 | 37498 ft | 469 kts | 245° |
| 2026-05-04 12:22 | 49.39414 | -52.42593 | 37496 ft | 469 kts | 245° |
| 2026-05-04 12:23 | 49.37061 | -52.51939 | 37494 ft | 470 kts | 245° |
| 2026-05-04 12:23 | 49.34700 | -52.61291 | 37495 ft | 470 kts | 245° |
| 2026-05-04 12:24 | 49.32329 | -52.70636 | 37496 ft | 471 kts | 244° |
| 2026-05-04 12:24 | 49.29946 | -52.79984 | 37514 ft | 471 kts | 244° |
| 2026-05-04 12:25 | 49.27554 | -52.89330 | 37498 ft | 472 kts | 244° |
| 2026-05-04 12:25 | 49.25151 | -52.98694 | 37423 ft | 472 kts | 244° |
| 2026-05-04 12:26 | 49.22737 | -53.08064 | 37391 ft | 474 kts | 244° |
| 2026-05-04 12:26 | 49.20308 | -53.17439 | 37393 ft | 474 kts | 244° |
| 2026-05-04 12:27 | 49.17874 | -53.26813 | 37389 ft | 475 kts | 244° |
| 2026-05-04 12:27 | 49.15423 | -53.36192 | 37382 ft | 475 kts | 244° |
| 2026-05-04 12:28 | 49.12970 | -53.45555 | 37382 ft | 475 kts | 244° |
| 2026-05-04 12:28 | 49.10507 | -53.54918 | 37379 ft | 476 kts | 244° |
| 2026-05-04 12:29 | 49.08032 | -53.64288 | 37364 ft | 476 kts | 244° |
| 2026-05-04 12:29 | 49.05567 | -53.73576 | 37368 ft | 476 kts | 244° |
| 2026-05-04 12:30 | 49.03069 | -53.82930 | 37352 ft | 477 kts | 244° |
| 2026-05-04 12:30 | 49.00567 | -53.92283 | 37358 ft | 477 kts | 244° |
| 2026-05-04 12:31 | 48.98063 | -54.01626 | 37347 ft | 477 kts | 244° |
| 2026-05-04 12:31 | 48.95539 | -54.10982 | 37346 ft | 479 kts | 244° |
| 2026-05-04 12:32 | 48.91723 | -54.25059 | 37340 ft | 480 kts | 244° |
| 2026-05-04 12:33 | 48.89171 | -54.34426 | 37334 ft | 480 kts | 244° |
| 2026-05-04 12:33 | 48.86615 | -54.43790 | 37335 ft | 480 kts | 244° |
| 2026-05-04 12:34 | 48.84051 | -54.53147 | 37335 ft | 481 kts | 244° |
| 2026-05-04 12:34 | 48.81464 | -54.62519 | 37335 ft | 481 kts | 244° |
| 2026-05-04 12:35 | 48.78872 | -54.71883 | 37336 ft | 481 kts | 244° |
| 2026-05-04 12:35 | 48.76276 | -54.81231 | 37336 ft | 481 kts | 244° |
| 2026-05-04 12:36 | 48.73670 | -54.90572 | 37334 ft | 481 kts | 244° |
| 2026-05-04 12:36 | 48.71073 | -54.99843 | 37337 ft | 481 kts | 243° |
| 2026-05-04 12:37 | 48.68452 | -55.09169 | 37335 ft | 482 kts | 244° |
| 2026-05-04 12:37 | 48.65822 | -55.18493 | 37335 ft | 482 kts | 243° |
| 2026-05-04 12:38 | 48.63630 | -55.26235 | 37337 ft | 482 kts | 244° |
| 2026-05-04 12:38 | 48.60977 | -55.35565 | 37337 ft | 482 kts | 243° |
| 2026-05-04 12:39 | 48.58320 | -55.44881 | 37335 ft | 483 kts | 244° |
| 2026-05-04 12:39 | 48.55655 | -55.54184 | 37338 ft | 483 kts | 244° |
| 2026-05-04 12:40 | 48.52983 | -55.63478 | 37326 ft | 483 kts | 244° |
| 2026-05-04 12:40 | 48.50322 | -55.72707 | 37327 ft | 483 kts | 244° |
| 2026-05-04 12:41 | 48.47635 | -55.81979 | 37326 ft | 483 kts | 243° |
| 2026-05-04 12:41 | 48.44939 | -55.91251 | 37319 ft | 483 kts | 243° |
| 2026-05-04 12:42 | 48.42235 | -56.00505 | 37317 ft | 483 kts | 243° |
| 2026-05-04 12:42 | 48.39525 | -56.09749 | 37316 ft | 483 kts | 243° |
| 2026-05-04 12:43 | 48.36802 | -56.18996 | 37307 ft | 483 kts | 243° |
| 2026-05-04 12:43 | 48.34076 | -56.28232 | 37281 ft | 483 kts | 243° |
| 2026-05-04 12:44 | 48.31343 | -56.37454 | 37278 ft | 483 kts | 243° |
| 2026-05-04 12:44 | 48.28601 | -56.46670 | 37280 ft | 483 kts | 243° |
| 2026-05-04 12:45 | 48.25849 | -56.55884 | 37279 ft | 484 kts | 243° |
| 2026-05-04 12:45 | 48.23092 | -56.65085 | 37270 ft | 484 kts | 243° |
| 2026-05-04 12:46 | 48.20321 | -56.74292 | 37270 ft | 484 kts | 243° |
| 2026-05-04 12:46 | 48.17542 | -56.83493 | 37270 ft | 485 kts | 243° |
| 2026-05-04 12:47 | 48.14768 | -56.92637 | 37269 ft | 485 kts | 243° |
| 2026-05-04 12:47 | 48.11971 | -57.01833 | 37269 ft | 485 kts | 243° |
| 2026-05-04 12:48 | 48.09167 | -57.11015 | 37270 ft | 485 kts | 243° |
| 2026-05-04 12:48 | 48.06350 | -57.20201 | 37270 ft | 486 kts | 243° |
| 2026-05-04 12:49 | 48.03526 | -57.29387 | 37270 ft | 486 kts | 243° |
| 2026-05-04 12:49 | 48.00691 | -57.38569 | 37269 ft | 486 kts | 243° |
| 2026-05-04 12:50 | 47.97850 | -57.47730 | 37261 ft | 486 kts | 243° |
| 2026-05-04 12:50 | 47.95025 | -57.56813 | 37260 ft | 485 kts | 243° |
| 2026-05-04 12:51 | 47.92173 | -57.65948 | 37261 ft | 486 kts | 243° |
| 2026-05-04 12:51 | 47.89308 | -57.75088 | 37260 ft | 486 kts | 243° |
| 2026-05-04 12:52 | 47.86436 | -57.84217 | 37260 ft | 486 kts | 242° |
| 2026-05-04 12:52 | 47.83558 | -57.93336 | 37261 ft | 487 kts | 242° |
| 2026-05-04 12:53 | 47.80671 | -58.02448 | 37261 ft | 487 kts | 242° |
| 2026-05-04 12:53 | 47.77778 | -58.11551 | 37261 ft | 487 kts | 242° |
| 2026-05-04 12:54 | 47.74880 | -58.20643 | 37260 ft | 487 kts | 242° |
| 2026-05-04 12:54 | 47.71973 | -58.29717 | 37260 ft | 486 kts | 242° |
| 2026-05-04 12:55 | 47.69079 | -58.38717 | 37261 ft | 486 kts | 242° |
| 2026-05-04 12:55 | 47.66159 | -58.47769 | 37261 ft | 486 kts | 242° |
| 2026-05-04 12:56 | 47.63232 | -58.56813 | 37260 ft | 486 kts | 242° |
| 2026-05-04 12:56 | 47.60302 | -58.65829 | 37259 ft | 485 kts | 242° |
| 2026-05-04 12:57 | 47.57363 | -58.74846 | 37260 ft | 485 kts | 242° |
| 2026-05-04 12:57 | 47.54422 | -58.83840 | 37260 ft | 485 kts | 242° |
| 2026-05-04 12:58 | 47.51470 | -58.92838 | 37256 ft | 485 kts | 242° |
| 2026-05-04 12:58 | 47.48512 | -59.01823 | 37251 ft | 486 kts | 242° |
| 2026-05-04 12:59 | 47.45569 | -59.10730 | 37251 ft | 486 kts | 242° |
| 2026-05-04 12:59 | 47.42596 | -59.19687 | 37257 ft | 486 kts | 242° |
| 2026-05-04 13:00 | 47.39612 | -59.28641 | 37260 ft | 486 kts | 242° |
| 2026-05-04 13:00 | 47.36622 | -59.37591 | 37260 ft | 486 kts | 242° |
| 2026-05-04 13:01 | 47.33631 | -59.46523 | 37260 ft | 486 kts | 242° |
| 2026-05-04 13:01 | 47.30629 | -59.55452 | 37260 ft | 486 kts | 242° |
| 2026-05-04 13:02 | 47.27619 | -59.64374 | 37261 ft | 486 kts | 242° |
| 2026-05-04 13:02 | 47.24620 | -59.73229 | 37260 ft | 486 kts | 242° |
| 2026-05-04 13:03 | 47.21594 | -59.82134 | 37261 ft | 486 kts | 242° |
| 2026-05-04 13:03 | 47.18561 | -59.91031 | 37260 ft | 486 kts | 242° |
| 2026-05-04 13:04 | 47.15522 | -59.99913 | 37260 ft | 486 kts | 242° |
| 2026-05-04 13:04 | 47.12473 | -60.08791 | 37274 ft | 486 kts | 242° |
| 2026-05-04 13:05 | 47.09421 | -60.17652 | 37279 ft | 486 kts | 242° |
| 2026-05-04 13:05 | 47.06381 | -60.26446 | 37288 ft | 486 kts | 242° |
| 2026-05-04 13:06 | 47.03320 | -60.35275 | 37290 ft | 485 kts | 242° |
| 2026-05-04 13:06 | 47.00255 | -60.44087 | 37288 ft | 485 kts | 242° |
| 2026-05-04 13:07 | 46.97178 | -60.52894 | 37287 ft | 485 kts | 242° |
| 2026-05-04 13:07 | 46.94100 | -60.61684 | 37288 ft | 485 kts | 242° |
| 2026-05-04 13:08 | 46.91014 | -60.70469 | 37288 ft | 485 kts | 242° |
| 2026-05-04 13:08 | 46.87923 | -60.79232 | 37290 ft | 485 kts | 242° |
| 2026-05-04 13:09 | 46.84821 | -60.87997 | 37297 ft | 485 kts | 242° |
| 2026-05-04 13:09 | 46.81715 | -60.96747 | 37311 ft | 485 kts | 242° |
| 2026-05-04 13:10 | 46.78609 | -61.05475 | 37335 ft | 485 kts | 242° |
| 2026-05-04 13:10 | 46.75510 | -61.14147 | 37335 ft | 485 kts | 242° |
| 2026-05-04 13:11 | 46.72385 | -61.22866 | 37345 ft | 484 kts | 242° |
| 2026-05-04 13:11 | 46.69257 | -61.31568 | 37346 ft | 484 kts | 242° |
| 2026-05-04 13:12 | 46.66119 | -61.40257 | 37348 ft | 484 kts | 242° |
| 2026-05-04 13:12 | 46.63000 | -61.48864 | 37390 ft | 484 kts | 242° |
| 2026-05-04 13:13 | 46.59858 | -61.57519 | 37403 ft | 484 kts | 242° |
| 2026-05-04 13:13 | 46.56710 | -61.66164 | 37398 ft | 483 kts | 242° |
| 2026-05-04 13:14 | 46.53549 | -61.74809 | 37412 ft | 484 kts | 241° |
| 2026-05-04 13:14 | 46.50391 | -61.83424 | 37420 ft | 483 kts | 242° |
| 2026-05-04 13:15 | 46.47228 | -61.92021 | 37429 ft | 483 kts | 242° |
| 2026-05-04 13:15 | 46.44059 | -62.00607 | 37442 ft | 483 kts | 241° |
| 2026-05-04 13:16 | 46.40886 | -62.09174 | 37447 ft | 482 kts | 241° |
| 2026-05-04 13:16 | 46.37708 | -62.17731 | 37461 ft | 482 kts | 241° |
| 2026-05-04 13:17 | 46.34542 | -62.26225 | 37459 ft | 482 kts | 241° |
| 2026-05-04 13:17 | 46.31352 | -62.34767 | 37463 ft | 482 kts | 241° |
| 2026-05-04 13:18 | 46.28155 | -62.43297 | 37481 ft | 482 kts | 241° |
| 2026-05-04 13:18 | 46.24945 | -62.51825 | 37490 ft | 482 kts | 241° |
| 2026-05-04 13:19 | 46.21733 | -62.60343 | 37501 ft | 483 kts | 241° |
| 2026-05-04 13:19 | 46.18514 | -62.68848 | 37504 ft | 483 kts | 241° |
| 2026-05-04 13:20 | 46.15308 | -62.77287 | 37508 ft | 483 kts | 241° |
| 2026-05-04 13:20 | 46.12076 | -62.85773 | 37515 ft | 483 kts | 241° |
| 2026-05-04 13:21 | 46.08838 | -62.94250 | 37514 ft | 483 kts | 241° |
| 2026-05-04 13:21 | 46.05587 | -63.02725 | 37515 ft | 483 kts | 241° |
| 2026-05-04 13:22 | 46.02334 | -63.11190 | 37515 ft | 483 kts | 241° |
| 2026-05-04 13:22 | 45.99077 | -63.19639 | 37524 ft | 483 kts | 241° |
| 2026-05-04 13:23 | 45.95824 | -63.28051 | 37531 ft | 480 kts | 241° |
| 2026-05-04 13:23 | 45.92579 | -63.36422 | 37533 ft | 479 kts | 241° |
| 2026-05-04 13:24 | 45.89346 | -63.44725 | 37543 ft | 479 kts | 241° |
| 2026-05-04 13:24 | 45.86080 | -63.53082 | 37554 ft | 480 kts | 241° |
| 2026-05-04 13:25 | 45.81170 | -63.65615 | 37591 ft | 480 kts | 241° |
| 2026-05-04 13:25 | 45.77891 | -63.73955 | 37598 ft | 480 kts | 240° |
| 2026-05-04 13:26 | 45.74608 | -63.82282 | 37615 ft | 480 kts | 240° |
| 2026-05-04 13:26 | 45.71308 | -63.90615 | 37619 ft | 481 kts | 240° |
| 2026-05-04 13:27 | 45.68565 | -63.97524 | 37627 ft | 481 kts | 240° |
| 2026-05-04 13:27 | 45.64721 | -64.07186 | 37630 ft | 481 kts | 240° |
| 2026-05-04 13:28 | 45.61944 | -64.14147 | 37637 ft | 481 kts | 240° |
| 2026-05-04 13:28 | 45.58650 | -64.22377 | 37645 ft | 480 kts | 240° |
| 2026-05-04 13:29 | 45.55333 | -64.30639 | 37655 ft | 480 kts | 240° |
| 2026-05-04 13:29 | 45.52007 | -64.38899 | 37656 ft | 479 kts | 240° |
| 2026-05-04 13:30 | 45.48681 | -64.47132 | 37666 ft | 479 kts | 240° |
| 2026-05-04 13:30 | 45.45348 | -64.55358 | 37676 ft | 479 kts | 240° |
| 2026-05-04 13:31 | 45.42014 | -64.63563 | 37686 ft | 478 kts | 240° |
| 2026-05-04 13:31 | 45.38675 | -64.71757 | 37696 ft | 478 kts | 240° |
| 2026-05-04 13:32 | 45.35351 | -64.79894 | 37717 ft | 478 kts | 240° |
| 2026-05-04 13:32 | 45.31999 | -64.88080 | 37733 ft | 478 kts | 240° |
| 2026-05-04 13:33 | 45.28648 | -64.96227 | 37745 ft | 478 kts | 240° |
| 2026-05-04 13:33 | 45.25290 | -65.04370 | 37750 ft | 477 kts | 240° |
| 2026-05-04 13:34 | 45.21926 | -65.12507 | 37748 ft | 477 kts | 240° |
| 2026-05-04 13:34 | 45.18560 | -65.20628 | 37748 ft | 477 kts | 240° |
| 2026-05-04 13:35 | 45.13524 | -65.32731 | 37758 ft | 477 kts | 240° |
| 2026-05-04 13:36 | 45.10144 | -65.40824 | 37758 ft | 477 kts | 240° |
| 2026-05-04 13:36 | 45.06757 | -65.48910 | 37757 ft | 477 kts | 240° |
| 2026-05-04 13:37 | 45.03366 | -65.56980 | 37757 ft | 477 kts | 239° |
| 2026-05-04 13:37 | 44.99973 | -65.65034 | 37758 ft | 476 kts | 239° |
| 2026-05-04 13:38 | 44.96581 | -65.73067 | 37758 ft | 476 kts | 239° |
| 2026-05-04 13:38 | 44.93181 | -65.81089 | 37758 ft | 476 kts | 239° |
| 2026-05-04 13:39 | 44.89778 | -65.89096 | 37766 ft | 476 kts | 239° |
| 2026-05-04 13:39 | 44.86367 | -65.97101 | 37767 ft | 475 kts | 239° |
| 2026-05-04 13:40 | 44.82960 | -66.05088 | 37767 ft | 475 kts | 239° |
| 2026-05-04 13:40 | 44.79568 | -66.13007 | 37773 ft | 475 kts | 239° |
| 2026-05-04 13:41 | 44.76145 | -66.20969 | 37786 ft | 475 kts | 239° |
| 2026-05-04 13:41 | 44.72723 | -66.28907 | 37787 ft | 474 kts | 239° |
| 2026-05-04 13:42 | 44.67584 | -66.40794 | 37796 ft | 474 kts | 239° |
| 2026-05-04 13:42 | 44.64150 | -66.48712 | 37803 ft | 474 kts | 239° |
| 2026-05-04 13:43 | 44.60711 | -66.56615 | 37810 ft | 474 kts | 239° |
| 2026-05-04 13:43 | 44.57265 | -66.64516 | 37813 ft | 474 kts | 239° |
| 2026-05-04 13:44 | 44.53812 | -66.72412 | 37825 ft | 474 kts | 239° |
| 2026-05-04 13:44 | 44.50355 | -66.80292 | 37824 ft | 474 kts | 239° |
| 2026-05-04 13:45 | 44.46893 | -66.88155 | 37825 ft | 474 kts | 239° |
| 2026-05-04 13:45 | 44.43446 | -66.95958 | 37838 ft | 474 kts | 239° |
| 2026-05-04 13:46 | 44.39330 | -67.03169 | 37841 ft | 475 kts | 227° |
| 2026-05-04 13:46 | 44.34677 | -67.09739 | 37841 ft | 476 kts | 225° |
| 2026-05-04 13:47 | 44.29941 | -67.16193 | 37850 ft | 476 kts | 225° |
| 2026-05-04 13:47 | 44.25202 | -67.22638 | 37851 ft | 475 kts | 225° |
| 2026-05-04 13:48 | 44.20474 | -67.29088 | 37848 ft | 475 kts | 225° |
| 2026-05-04 13:48 | 44.15748 | -67.35534 | 37848 ft | 475 kts | 225° |
| 2026-05-04 13:49 | 44.11025 | -67.41964 | 37852 ft | 475 kts | 225° |
| 2026-05-04 13:49 | 44.06321 | -67.48350 | 37851 ft | 475 kts | 225° |
| 2026-05-04 13:50 | 44.01596 | -67.54750 | 37847 ft | 474 kts | 225° |
| 2026-05-04 13:50 | 43.96864 | -67.61144 | 37853 ft | 474 kts | 225° |
| 2026-05-04 13:51 | 43.92138 | -67.67516 | 37852 ft | 473 kts | 225° |
| 2026-05-04 13:51 | 43.87402 | -67.73886 | 37851 ft | 474 kts | 225° |
| 2026-05-04 13:52 | 43.80296 | -67.83417 | 37858 ft | 474 kts | 225° |
| 2026-05-04 13:53 | 43.75556 | -67.89754 | 37858 ft | 474 kts | 225° |
| 2026-05-04 13:53 | 43.70845 | -67.96040 | 37860 ft | 473 kts | 225° |
| 2026-05-04 13:54 | 43.63728 | -68.05506 | 37860 ft | 474 kts | 225° |
| 2026-05-04 13:55 | 43.56603 | -68.14948 | 37864 ft | 473 kts | 225° |
| 2026-05-04 13:55 | 43.49475 | -68.24362 | 37879 ft | 473 kts | 225° |
| 2026-05-04 13:56 | 43.44726 | -68.30619 | 37868 ft | 472 kts | 225° |
| 2026-05-04 13:57 | 43.37598 | -68.39986 | 37864 ft | 472 kts | 225° |
| 2026-05-04 13:58 | 43.28135 | -68.52363 | 37865 ft | 470 kts | 225° |
| 2026-05-04 13:58 | 43.21026 | -68.61625 | 37874 ft | 469 kts | 225° |
| 2026-05-04 13:59 | 43.16291 | -68.67778 | 37881 ft | 469 kts | 225° |
| 2026-05-04 14:00 | 43.09191 | -68.76977 | 37860 ft | 468 kts | 225° |
| 2026-05-04 14:00 | 43.02093 | -68.86151 | 37868 ft | 468 kts | 225° |
| 2026-05-04 14:01 | 42.97357 | -68.92253 | 37881 ft | 467 kts | 225° |
| 2026-05-04 14:02 | 42.90248 | -69.01377 | 37880 ft | 467 kts | 225° |
| 2026-05-04 14:02 | 42.85536 | -69.07413 | 37887 ft | 467 kts | 225° |
| 2026-05-04 14:03 | 42.80799 | -69.13461 | 37890 ft | 466 kts | 224° |
| 2026-05-04 14:03 | 42.76059 | -69.19505 | 37884 ft | 466 kts | 224° |
| 2026-05-04 14:04 | 42.68953 | -69.28543 | 37897 ft | 466 kts | 224° |
| 2026-05-04 14:04 | 42.64211 | -69.34557 | 37904 ft | 466 kts | 224° |
| 2026-05-04 14:05 | 42.57132 | -69.43516 | 37906 ft | 465 kts | 224° |
| 2026-05-04 14:06 | 42.52384 | -69.49496 | 37915 ft | 466 kts | 224° |
| 2026-05-04 14:06 | 42.47637 | -69.55469 | 37923 ft | 466 kts | 224° |
| 2026-05-04 14:07 | 42.42878 | -69.61448 | 37927 ft | 465 kts | 224° |
| 2026-05-04 14:07 | 42.38132 | -69.67393 | 37934 ft | 465 kts | 224° |
| 2026-05-04 14:08 | 42.33374 | -69.73343 | 37934 ft | 465 kts | 224° |
| 2026-05-04 14:08 | 42.28654 | -69.79234 | 37935 ft | 465 kts | 224° |
| 2026-05-04 14:09 | 42.21526 | -69.88105 | 37940 ft | 464 kts | 224° |
| 2026-05-04 14:10 | 42.14394 | -69.96949 | 37950 ft | 464 kts | 224° |
| 2026-05-04 14:10 | 42.09638 | -70.02834 | 37950 ft | 464 kts | 224° |
| 2026-05-04 14:11 | 42.04870 | -70.08720 | 37950 ft | 464 kts | 224° |
| 2026-05-04 14:11 | 41.97755 | -70.17477 | 37951 ft | 464 kts | 224° |
| 2026-05-04 14:12 | 41.93018 | -70.23385 | 37951 ft | 464 kts | 227° |
| 2026-05-04 14:13 | 41.87184 | -70.33680 | 37952 ft | 462 kts | 236° |
| 2026-05-04 14:13 | 41.83580 | -70.40800 | 37958 ft | 461 kts | 237° |
| 2026-05-04 14:14 | 41.79983 | -70.47931 | 37951 ft | 461 kts | 237° |
| 2026-05-04 14:14 | 41.74582 | -70.58537 | 37977 ft | 461 kts | 236° |
| 2026-05-04 14:15 | 41.67335 | -70.72663 | 37958 ft | 460 kts | 236° |
| 2026-05-04 14:16 | 41.62496 | -70.82057 | 37952 ft | 460 kts | 236° |
| 2026-05-04 14:17 | 41.57039 | -70.92615 | 37954 ft | 460 kts | 236° |
| 2026-05-04 14:18 | 41.51578 | -71.03156 | 37967 ft | 460 kts | 236° |
| 2026-05-04 14:19 | 41.44287 | -71.17161 | 37968 ft | 459 kts | 236° |
| 2026-05-04 14:19 | 41.40634 | -71.24158 | 37968 ft | 460 kts | 236° |
| 2026-05-04 14:20 | 41.36975 | -71.31145 | 37971 ft | 460 kts | 236° |
| 2026-05-04 14:20 | 41.33312 | -71.38126 | 37970 ft | 460 kts | 236° |
| 2026-05-04 14:21 | 41.27833 | -71.48540 | 37997 ft | 460 kts | 236° |
| 2026-05-04 14:21 | 41.24161 | -71.55501 | 38001 ft | 460 kts | 236° |
| 2026-05-04 14:22 | 41.20485 | -71.62455 | 38008 ft | 460 kts | 236° |
| 2026-05-04 14:22 | 41.16806 | -71.69394 | 38008 ft | 460 kts | 236° |
| 2026-05-04 14:23 | 41.11279 | -71.79790 | 38008 ft | 460 kts | 236° |
| 2026-05-04 14:24 | 41.07585 | -71.86719 | 38018 ft | 459 kts | 236° |
| 2026-05-04 14:24 | 41.03897 | -71.93623 | 38017 ft | 459 kts | 236° |
| 2026-05-04 14:25 | 41.00203 | -72.00522 | 38017 ft | 459 kts | 236° |
| 2026-05-04 14:25 | 40.94671 | -72.10825 | 38017 ft | 460 kts | 236° |
| 2026-05-04 14:26 | 40.90962 | -72.17714 | 38017 ft | 460 kts | 235° |
| 2026-05-04 14:26 | 40.87249 | -72.24596 | 38017 ft | 459 kts | 235° |
| 2026-05-04 14:27 | 40.83537 | -72.31462 | 38017 ft | 459 kts | 235° |
| 2026-05-04 14:27 | 40.79817 | -72.38324 | 38017 ft | 459 kts | 235° |
| 2026-05-04 14:28 | 40.76095 | -72.45176 | 38028 ft | 459 kts | 235° |
| 2026-05-04 14:28 | 40.72372 | -72.52016 | 38026 ft | 459 kts | 235° |
| 2026-05-04 14:29 | 40.64713 | -72.65413 | 38025 ft | 459 kts | 231° |
| 2026-05-04 14:30 | 40.60572 | -72.71829 | 38025 ft | 460 kts | 231° |
| 2026-05-04 14:31 | 40.54403 | -72.81495 | 38018 ft | 460 kts | 231° |
| 2026-05-04 14:32 | 40.46245 | -72.94449 | 38017 ft | 460 kts | 231° |
| 2026-05-04 14:32 | 40.42160 | -73.00914 | 38017 ft | 460 kts | 231° |
| 2026-05-04 14:33 | 40.38070 | -73.07374 | 38017 ft | 460 kts | 231° |
| 2026-05-04 14:33 | 40.33974 | -73.13832 | 38017 ft | 460 kts | 231° |
| 2026-05-04 14:34 | 40.29873 | -73.20282 | 38017 ft | 460 kts | 231° |
| 2026-05-04 14:34 | 40.25794 | -73.26683 | 38018 ft | 461 kts | 231° |
| 2026-05-04 14:35 | 40.21686 | -73.33120 | 38017 ft | 461 kts | 231° |
| 2026-05-04 14:35 | 40.17573 | -73.39547 | 38017 ft | 461 kts | 231° |
| 2026-05-04 14:36 | 40.13456 | -73.45970 | 38021 ft | 461 kts | 231° |
| 2026-05-04 14:36 | 40.09334 | -73.52384 | 38024 ft | 461 kts | 231° |
| 2026-05-04 14:37 | 40.05207 | -73.58792 | 38025 ft | 461 kts | 231° |
| 2026-05-04 14:37 | 40.01076 | -73.65193 | 38030 ft | 461 kts | 231° |
| 2026-05-04 14:38 | 39.96588 | -73.71154 | 38024 ft | 462 kts | 219° |
| 2026-05-04 14:38 | 39.91014 | -73.75377 | 38024 ft | 466 kts | 206° |
| 2026-05-04 14:39 | 39.85031 | -73.78657 | 38026 ft | 467 kts | 204° |
| 2026-05-04 14:39 | 39.78992 | -73.81794 | 38026 ft | 467 kts | 204° |
| 2026-05-04 14:40 | 39.69978 | -73.86523 | 38034 ft | 467 kts | 205° |
| 2026-05-04 14:40 | 39.63958 | -73.89712 | 38036 ft | 467 kts | 205° |
| 2026-05-04 14:41 | 39.57942 | -73.92896 | 38036 ft | 467 kts | 205° |
| 2026-05-04 14:42 | 39.45908 | -73.99249 | 38035 ft | 466 kts | 205° |
| 2026-05-04 14:42 | 39.40193 | -74.03101 | 38045 ft | 461 kts | 217° |
| 2026-05-04 14:43 | 39.35190 | -74.08208 | 38045 ft | 461 kts | 221° |
| 2026-05-04 14:43 | 39.30299 | -74.13573 | 38045 ft | 460 kts | 222° |
| 2026-05-04 14:44 | 39.25432 | -74.18941 | 38046 ft | 460 kts | 222° |
| 2026-05-04 14:44 | 39.20547 | -74.24281 | 38045 ft | 460 kts | 222° |
| 2026-05-04 14:45 | 39.15656 | -74.29590 | 38045 ft | 460 kts | 221° |
| 2026-05-04 14:45 | 39.10756 | -74.34898 | 38054 ft | 459 kts | 221° |
| 2026-05-04 14:46 | 39.05867 | -74.40175 | 38055 ft | 458 kts | 221° |
| 2026-05-04 14:46 | 39.00975 | -74.45449 | 38054 ft | 458 kts | 221° |
| 2026-05-04 14:47 | 38.96087 | -74.50717 | 38064 ft | 458 kts | 221° |
| 2026-05-04 14:47 | 38.91237 | -74.56029 | 38064 ft | 457 kts | 223° |
| 2026-05-04 14:48 | 38.86553 | -74.61559 | 38063 ft | 457 kts | 224° |
| 2026-05-04 14:48 | 38.81895 | -74.67109 | 38064 ft | 457 kts | 224° |
| 2026-05-04 14:49 | 38.77232 | -74.72593 | 38063 ft | 458 kts | 224° |
| 2026-05-04 14:49 | 38.72490 | -74.78032 | 38064 ft | 458 kts | 221° |
| 2026-05-04 14:50 | 38.67539 | -74.83154 | 38063 ft | 458 kts | 220° |
| 2026-05-04 14:50 | 38.62543 | -74.88216 | 38073 ft | 458 kts | 220° |
| 2026-05-04 14:51 | 38.57574 | -74.93321 | 38073 ft | 458 kts | 221° |
| 2026-05-04 14:51 | 38.52622 | -74.98450 | 38073 ft | 458 kts | 221° |
| 2026-05-04 14:52 | 38.47784 | -75.03731 | 38073 ft | 457 kts | 223° |
| 2026-05-04 14:52 | 38.42906 | -75.08977 | 38076 ft | 458 kts | 219° |
| 2026-05-04 14:53 | 38.37796 | -75.13763 | 38082 ft | 459 kts | 218° |
| 2026-05-04 14:53 | 38.32611 | -75.18536 | 38082 ft | 460 kts | 218° |
| 2026-05-04 14:54 | 38.27459 | -75.23359 | 38081 ft | 460 kts | 218° |
| 2026-05-04 14:54 | 38.22322 | -75.28211 | 38073 ft | 460 kts | 219° |
| 2026-05-04 14:55 | 38.17186 | -75.33065 | 38073 ft | 460 kts | 219° |
| 2026-05-04 14:55 | 38.12042 | -75.37916 | 38073 ft | 460 kts | 218° |
| 2026-05-04 14:56 | 38.06897 | -75.42757 | 38072 ft | 460 kts | 218° |
| 2026-05-04 14:56 | 38.01708 | -75.47548 | 38073 ft | 461 kts | 217° |
| 2026-05-04 14:57 | 37.96406 | -75.52126 | 38073 ft | 461 kts | 216° |
| 2026-05-04 14:57 | 37.91129 | -75.56643 | 38073 ft | 460 kts | 216° |
| 2026-05-04 14:58 | 37.85447 | -75.60414 | 38072 ft | 465 kts | 202° |
| 2026-05-04 14:58 | 37.80175 | -75.61901 | 38070 ft | 471 kts | 188° |
| 2026-05-04 14:59 | 37.72457 | -75.61592 | 38063 ft | 476 kts | 179° |
| 2026-05-04 14:59 | 37.65915 | -75.61753 | 38066 ft | 471 kts | 190° |
| 2026-05-04 15:00 | 37.62672 | -75.62301 | 38063 ft | 470 kts | 192° |
| 2026-05-04 15:00 | 37.56216 | -75.63631 | 38063 ft | 469 kts | 193° |
| 2026-05-04 15:01 | 37.46577 | -75.65763 | 38064 ft | 468 kts | 193° |
| 2026-05-04 15:01 | 37.40184 | -75.67154 | 38063 ft | 468 kts | 193° |
| 2026-05-04 15:02 | 37.33761 | -75.68537 | 38073 ft | 468 kts | 193° |
| 2026-05-04 15:02 | 37.27345 | -75.69914 | 38073 ft | 468 kts | 193° |
| 2026-05-04 15:03 | 37.20918 | -75.71288 | 38073 ft | 467 kts | 193° |
| 2026-05-04 15:03 | 37.14512 | -75.72659 | 38073 ft | 467 kts | 193° |
| 2026-05-04 15:04 | 37.08169 | -75.74111 | 38081 ft | 464 kts | 197° |
| 2026-05-04 15:04 | 37.02211 | -75.77005 | 38080 ft | 458 kts | 210° |
| 2026-05-04 15:05 | 36.97535 | -75.80125 | 38081 ft | 457 kts | 211° |
| 2026-05-04 15:05 | 36.91995 | -75.84012 | 38082 ft | 457 kts | 212° |
| 2026-05-04 15:06 | 36.86456 | -75.87900 | 38083 ft | 456 kts | 211° |
| 2026-05-04 15:07 | 36.78119 | -75.93680 | 38083 ft | 456 kts | 211° |
| 2026-05-04 15:07 | 36.72557 | -75.97512 | 38082 ft | 456 kts | 211° |
| 2026-05-04 15:08 | 36.66997 | -76.01337 | 38081 ft | 456 kts | 211° |
| 2026-05-04 15:08 | 36.61426 | -76.05163 | 38097 ft | 457 kts | 211° |
| 2026-05-04 15:09 | 36.55880 | -76.08967 | 38101 ft | 458 kts | 211° |
| 2026-05-04 15:09 | 36.50302 | -76.12790 | 38097 ft | 457 kts | 211° |
| 2026-05-04 15:10 | 36.41896 | -76.18535 | 38097 ft | 462 kts | 211° |
| 2026-05-04 15:11 | 36.33436 | -76.24305 | 38113 ft | 463 kts | 211° |
| 2026-05-04 15:11 | 36.27788 | -76.28148 | 38110 ft | 463 kts | 211° |
| 2026-05-04 15:12 | 36.22140 | -76.31988 | 38110 ft | 463 kts | 211° |
| 2026-05-04 15:12 | 36.16526 | -76.35792 | 38112 ft | 463 kts | 211° |
| 2026-05-04 15:13 | 36.10877 | -76.39617 | 38119 ft | 463 kts | 211° |
| 2026-05-04 15:13 | 36.05223 | -76.43442 | 38123 ft | 463 kts | 211° |
| 2026-05-04 15:14 | 35.99566 | -76.47259 | 38127 ft | 463 kts | 211° |
| 2026-05-04 15:14 | 35.93920 | -76.51063 | 38130 ft | 463 kts | 211° |
| 2026-05-04 15:15 | 35.88258 | -76.54862 | 38128 ft | 462 kts | 211° |
| 2026-05-04 15:15 | 35.82515 | -76.58461 | 38127 ft | 463 kts | 209° |
| 2026-05-04 15:16 | 35.73826 | -76.63723 | 38128 ft | 464 kts | 209° |
| 2026-05-04 15:17 | 35.65204 | -76.69001 | 38128 ft | 463 kts | 209° |
| 2026-05-04 15:17 | 35.56553 | -76.74317 | 38127 ft | 463 kts | 209° |
| 2026-05-04 15:18 | 35.50781 | -76.77846 | 38127 ft | 463 kts | 209° |
| 2026-05-04 15:19 | 35.42124 | -76.83143 | 38131 ft | 463 kts | 209° |
| 2026-05-04 15:19 | 35.33463 | -76.88423 | 38134 ft | 463 kts | 209° |
| 2026-05-04 15:20 | 35.27695 | -76.91933 | 38134 ft | 463 kts | 209° |
| 2026-05-04 15:20 | 35.24807 | -76.93689 | 38265 ft | 463 kts | 209° |
| 2026-05-04 15:20 | 35.21930 | -76.95446 | 38537 ft | 461 kts | 210° |
| 2026-05-04 15:21 | 35.19079 | -76.97222 | 38799 ft | 460 kts | 210° |
| 2026-05-04 15:21 | 35.16233 | -76.99013 | 38996 ft | 459 kts | 210° |
| 2026-05-04 15:21 | 35.10584 | -77.02576 | 39355 ft | 460 kts | 210° |
| 2026-05-04 15:22 | 35.07738 | -77.04363 | 39517 ft | 460 kts | 210° |
| 2026-05-04 15:22 | 35.04888 | -77.06149 | 39655 ft | 461 kts | 210° |
| 2026-05-04 15:22 | 34.99174 | -77.09720 | 39954 ft | 461 kts | 210° |
| 2026-05-04 15:23 | 34.96316 | -77.11503 | 40090 ft | 461 kts | 210° |
| 2026-05-04 15:23 | 34.93446 | -77.13291 | 40145 ft | 464 kts | 210° |
| 2026-05-04 15:23 | 34.87686 | -77.16876 | 40147 ft | 465 kts | 210° |
| 2026-05-04 15:24 | 34.76177 | -77.24019 | 40146 ft | 465 kts | 210° |
| 2026-05-04 15:25 | 34.70405 | -77.27595 | 40147 ft | 465 kts | 210° |
| 2026-05-04 15:26 | 34.61751 | -77.32944 | 40138 ft | 465 kts | 210° |
| 2026-05-04 15:26 | 34.53090 | -77.38285 | 40137 ft | 465 kts | 210° |
| 2026-05-04 15:27 | 34.43847 | -77.41999 | 40137 ft | 472 kts | 194° |
| 2026-05-04 15:28 | 34.34104 | -77.43952 | 40142 ft | 473 kts | 192° |
| 2026-05-04 15:29 | 34.24344 | -77.45797 | 40137 ft | 473 kts | 192° |
| 2026-05-04 15:30 | 34.01617 | -77.50214 | 40137 ft | 473 kts | 192° |
| 2026-05-04 15:31 | 33.91870 | -77.52103 | 40137 ft | 473 kts | 192° |
| 2026-05-04 15:32 | 33.75656 | -77.55237 | 40147 ft | 473 kts | 192° |
| 2026-05-04 15:34 | 33.59421 | -77.58385 | 40143 ft | 471 kts | 194° |
| 2026-05-04 15:34 | 33.49957 | -77.61423 | 40146 ft | 469 kts | 199° |
| 2026-05-04 15:35 | 33.40566 | -77.64733 | 40146 ft | 468 kts | 199° |
| 2026-05-04 15:36 | 33.31220 | -77.68011 | 40147 ft | 468 kts | 199° |
| 2026-05-04 15:36 | 33.24971 | -77.70189 | 40147 ft | 468 kts | 199° |
| 2026-05-04 15:37 | 33.18714 | -77.72365 | 40146 ft | 468 kts | 199° |
| 2026-05-04 15:37 | 33.12465 | -77.74536 | 40147 ft | 467 kts | 199° |
| 2026-05-04 15:38 | 33.06217 | -77.76703 | 40147 ft | 467 kts | 199° |
| 2026-05-04 15:38 | 32.99965 | -77.78868 | 40147 ft | 467 kts | 199° |
| 2026-05-04 15:39 | 32.93724 | -77.81027 | 40147 ft | 467 kts | 199° |
| 2026-05-04 15:40 | 32.84365 | -77.84258 | 40146 ft | 467 kts | 199° |
| 2026-05-04 15:40 | 32.78128 | -77.86407 | 40147 ft | 467 kts | 199° |
| 2026-05-04 15:41 | 32.71934 | -77.88538 | 40147 ft | 466 kts | 199° |
| 2026-05-04 15:41 | 32.65698 | -77.90682 | 40147 ft | 466 kts | 199° |
| 2026-05-04 15:42 | 32.59431 | -77.92743 | 40146 ft | 467 kts | 199° |
| 2026-05-04 15:42 | 32.53157 | -77.94747 | 40146 ft | 467 kts | 199° |
| 2026-05-04 15:43 | 32.46886 | -77.96760 | 40147 ft | 467 kts | 199° |
| 2026-05-04 15:43 | 32.40617 | -77.98784 | 40146 ft | 466 kts | 199° |
| 2026-05-04 15:44 | 32.34355 | -78.00807 | 40146 ft | 466 kts | 199° |
| 2026-05-04 15:44 | 32.28128 | -78.02817 | 40147 ft | 467 kts | 199° |
| 2026-05-04 15:45 | 32.21852 | -78.04838 | 40146 ft | 467 kts | 199° |
| 2026-05-04 15:45 | 32.15584 | -78.06854 | 40137 ft | 467 kts | 199° |
| 2026-05-04 15:46 | 32.09317 | -78.08866 | 40138 ft | 467 kts | 199° |
| 2026-05-04 15:46 | 32.03041 | -78.10879 | 40147 ft | 467 kts | 199° |
| 2026-05-04 15:47 | 31.96776 | -78.12886 | 40147 ft | 467 kts | 199° |
| 2026-05-04 15:47 | 31.90500 | -78.14893 | 40146 ft | 467 kts | 199° |
| 2026-05-04 15:48 | 31.84277 | -78.16880 | 40146 ft | 467 kts | 199° |
| 2026-05-04 15:48 | 31.74865 | -78.19880 | 40146 ft | 467 kts | 199° |
| 2026-05-04 15:49 | 31.68593 | -78.21876 | 40147 ft | 467 kts | 199° |
| 2026-05-04 15:49 | 31.62318 | -78.23870 | 40147 ft | 467 kts | 199° |
| 2026-05-04 15:50 | 31.56040 | -78.25863 | 40146 ft | 467 kts | 199° |
| 2026-05-04 15:50 | 31.49755 | -78.27854 | 40147 ft | 468 kts | 199° |
| 2026-05-04 15:51 | 31.43473 | -78.29869 | 40147 ft | 468 kts | 199° |
| 2026-05-04 15:51 | 31.37219 | -78.31973 | 40146 ft | 467 kts | 200° |
| 2026-05-04 15:52 | 31.30971 | -78.34087 | 40147 ft | 468 kts | 200° |
| 2026-05-04 15:52 | 31.24709 | -78.36190 | 40147 ft | 468 kts | 200° |
| 2026-05-04 15:53 | 31.18484 | -78.38268 | 40146 ft | 468 kts | 200° |
| 2026-05-04 15:53 | 31.12221 | -78.40354 | 40146 ft | 468 kts | 200° |
| 2026-05-04 15:54 | 31.05957 | -78.42438 | 40146 ft | 468 kts | 200° |
| 2026-05-04 15:54 | 31.00749 | -78.44169 | 40147 ft | 468 kts | 200° |
| 2026-05-04 15:55 | 30.94486 | -78.46248 | 40146 ft | 468 kts | 200° |
| 2026-05-04 15:55 | 30.88221 | -78.48325 | 40146 ft | 468 kts | 200° |
| 2026-05-04 15:56 | 30.81952 | -78.50400 | 40146 ft | 468 kts | 200° |
| 2026-05-04 15:56 | 30.75686 | -78.52472 | 40146 ft | 468 kts | 200° |
| 2026-05-04 15:57 | 30.69417 | -78.54542 | 40146 ft | 468 kts | 200° |
| 2026-05-04 15:57 | 30.63154 | -78.56607 | 40146 ft | 468 kts | 200° |
| 2026-05-04 15:58 | 30.56894 | -78.58668 | 40146 ft | 467 kts | 200° |
| 2026-05-04 15:58 | 30.50632 | -78.60728 | 40146 ft | 467 kts | 200° |
| 2026-05-04 15:59 | 30.44372 | -78.62784 | 40137 ft | 468 kts | 200° |
| 2026-05-04 15:59 | 30.38114 | -78.64836 | 40137 ft | 467 kts | 200° |
| 2026-05-04 16:00 | 30.31887 | -78.66875 | 40137 ft | 467 kts | 200° |
| 2026-05-04 16:00 | 30.25617 | -78.68927 | 40145 ft | 468 kts | 200° |
| 2026-05-04 16:01 | 30.19344 | -78.70976 | 40144 ft | 468 kts | 200° |
| 2026-05-04 16:01 | 30.13075 | -78.73024 | 40119 ft | 468 kts | 200° |
| 2026-05-04 16:02 | 30.06805 | -78.75063 | 40119 ft | 468 kts | 200° |
| 2026-05-04 16:03 | 29.97398 | -78.78121 | 40119 ft | 468 kts | 200° |
| 2026-05-04 16:03 | 29.91130 | -78.80156 | 40119 ft | 468 kts | 200° |
| 2026-05-04 16:04 | 29.84903 | -78.82176 | 40119 ft | 468 kts | 200° |
| 2026-05-04 16:04 | 29.75355 | -78.84708 | 40119 ft | 473 kts | 191° |
| 2026-05-04 16:05 | 29.68802 | -78.85590 | 40119 ft | 474 kts | 191° |
| 2026-05-04 16:06 | 29.59218 | -78.86869 | 40119 ft | 474 kts | 191° |
| 2026-05-04 16:07 | 29.46112 | -78.88629 | 40109 ft | 474 kts | 191° |
| 2026-05-04 16:08 | 29.33043 | -78.90383 | 40109 ft | 474 kts | 191° |
| 2026-05-04 16:09 | 29.16672 | -78.92574 | 40109 ft | 474 kts | 191° |
| 2026-05-04 16:10 | 29.03614 | -78.94316 | 40109 ft | 473 kts | 191° |
| 2026-05-04 16:11 | 28.90517 | -78.96060 | 40109 ft | 473 kts | 191° |
| 2026-05-04 16:12 | 28.70871 | -78.98666 | 40109 ft | 473 kts | 191° |
| 2026-05-04 16:13 | 28.57829 | -79.00391 | 40093 ft | 473 kts | 191° |
| 2026-05-04 16:14 | 28.44740 | -79.02118 | 40092 ft | 473 kts | 191° |
| 2026-05-04 16:16 | 28.28704 | -79.05545 | 40091 ft | 465 kts | 202° |
| 2026-05-04 16:17 | 28.13364 | -79.11295 | 40091 ft | 466 kts | 202° |
| 2026-05-04 16:18 | 28.01046 | -79.15879 | 40092 ft | 466 kts | 202° |
| 2026-05-04 16:19 | 27.85645 | -79.21591 | 40091 ft | 465 kts | 202° |
| 2026-05-04 16:20 | 27.70317 | -79.27260 | 39601 ft | 463 kts | 202° |
| 2026-05-04 16:21 | 27.61228 | -79.30612 | 38202 ft | 454 kts | 202° |
| 2026-05-04 16:22 | 27.55249 | -79.32814 | 37018 ft | 451 kts | 202° |
| 2026-05-04 16:22 | 27.46327 | -79.36096 | 35167 ft | 448 kts | 202° |
| 2026-05-04 16:23 | 27.37348 | -79.39398 | 33051 ft | 458 kts | 202° |
| 2026-05-04 16:24 | 27.25089 | -79.43895 | 29808 ft | 468 kts | 202° |
| 2026-05-04 16:25 | 27.18940 | -79.46139 | 28625 ft | 460 kts | 202° |
| 2026-05-04 16:26 | 27.07011 | -79.50491 | 26325 ft | 443 kts | 201° |
| 2026-05-04 16:26 | 26.98345 | -79.53657 | 24637 ft | 432 kts | 201° |
| 2026-05-04 16:27 | 26.92658 | -79.55724 | 23547 ft | 427 kts | 201° |
| 2026-05-04 16:28 | 26.84280 | -79.58764 | 21900 ft | 417 kts | 201° |
| 2026-05-04 16:28 | 26.76116 | -79.61701 | 20505 ft | 397 kts | 200° |
| 2026-05-04 16:29 | 26.66329 | -79.65216 | 19815 ft | 352 kts | 201° |
| 2026-05-04 16:30 | 26.59064 | -79.67823 | 18524 ft | 368 kts | 200° |
| 2026-05-04 16:31 | 26.54212 | -79.69511 | 17538 ft | 360 kts | 200° |
| 2026-05-04 16:31 | 26.47216 | -79.72000 | 16255 ft | 347 kts | 204° |
| 2026-05-04 16:32 | 26.41892 | -79.77146 | 15506 ft | 342 kts | 229° |
| 2026-05-04 16:33 | 26.38716 | -79.81078 | 15070 ft | 340 kts | 232° |
| 2026-05-04 16:33 | 26.35986 | -79.85287 | 14713 ft | 325 kts | 236° |
| 2026-05-04 16:34 | 26.33503 | -79.89276 | 14323 ft | 301 kts | 236° |
| 2026-05-04 16:34 | 26.32319 | -79.91176 | 14125 ft | 297 kts | 236° |
| 2026-05-04 16:35 | 26.28778 | -79.96842 | 13542 ft | 296 kts | 236° |
| 2026-05-04 16:35 | 26.24862 | -80.02034 | 12985 ft | 297 kts | 211° |
| 2026-05-04 16:36 | 26.22913 | -80.02810 | 12797 ft | 299 kts | 195° |
| 2026-05-04 16:36 | 26.18826 | -80.03722 | 12422 ft | 299 kts | 193° |
| 2026-05-04 16:37 | 26.14753 | -80.04624 | 12038 ft | 297 kts | 194° |
| 2026-05-04 16:37 | 26.12728 | -80.05081 | 11860 ft | 297 kts | 194° |
| 2026-05-04 16:37 | 26.08686 | -80.05999 | 11494 ft | 296 kts | 194° |
| 2026-05-04 16:38 | 26.04662 | -80.06957 | 11121 ft | 295 kts | 195° |
| 2026-05-04 16:39 | 25.98696 | -80.08518 | 10557 ft | 293 kts | 195° |
| 2026-05-04 16:39 | 25.94738 | -80.09553 | 10201 ft | 293 kts | 195° |
| 2026-05-04 16:40 | 25.90906 | -80.10977 | 9842 ft | 289 kts | 208° |
| 2026-05-04 16:40 | 25.87932 | -80.12699 | 9541 ft | 290 kts | 209° |
| 2026-05-04 16:41 | 25.84364 | -80.14773 | 9185 ft | 288 kts | 210° |
| 2026-05-04 16:41 | 25.79004 | -80.17876 | 8639 ft | 288 kts | 209° |
| 2026-05-04 16:42 | 25.73728 | -80.21034 | 8095 ft | 285 kts | 217° |
| 2026-05-04 16:43 | 25.71798 | -80.24721 | 7655 ft | 281 kts | 256° |
| 2026-05-04 16:43 | 25.71152 | -80.28962 | 6974 ft | 278 kts | 266° |
| 2026-05-04 16:43 | 25.71055 | -80.31102 | 6690 ft | 277 kts | 268° |
| 2026-05-04 16:44 | 25.70685 | -80.39575 | 5547 ft | 273 kts | 267° |
| 2026-05-04 16:45 | 25.70488 | -80.43759 | 4979 ft | 271 kts | 267° |
| 2026-05-04 16:46 | 25.69981 | -80.49990 | 4294 ft | 272 kts | 265° |
| 2026-05-04 16:46 | 25.69615 | -80.54140 | 3449 ft | 269 kts | 265° |
| 2026-05-04 16:47 | 25.69368 | -80.58241 | 3009 ft | 267 kts | 279° |
| 2026-05-04 16:47 | 25.71396 | -80.61457 | 3009 ft | 263 kts | 334° |
| 2026-05-04 16:48 | 25.76287 | -80.60165 | 3010 ft | 261 kts | 49° |
| 2026-05-04 16:48 | 25.77263 | -80.58469 | 3012 ft | 263 kts | 68° |
| 2026-05-04 16:49 | 25.77721 | -80.54464 | 3010 ft | 264 kts | 89° |
| 2026-05-04 16:49 | 25.77815 | -80.50423 | 3003 ft | 258 kts | 86° |
| 2026-05-04 16:50 | 25.77982 | -80.46684 | 2797 ft | 230 kts | 86° |
| 2026-05-04 16:50 | 25.78126 | -80.43254 | 2187 ft | 215 kts | 86° |
| 2026-05-04 16:51 | 25.78251 | -80.40181 | 1636 ft | 184 kts | 86° |
| 2026-05-04 16:51 | 25.78308 | -80.38807 | 1407 ft | 175 kts | 86° |
| 2026-05-04 16:51 | 25.78413 | -80.36273 | 955 ft | 153 kts | 86° |
| 2026-05-04 16:52 | 25.78506 | -80.34022 | 552 ft | 142 kts | 86° |
| 2026-05-04 16:52 | 25.78549 | -80.32921 | 394 ft | 144 kts | 86° |
| 2026-05-04 16:53 | 25.78646 | -80.30741 | 42 ft | 141 kts | 85° |
| 2026-05-04 16:53 | 25.78726 | -80.28769 | 25 ft | 40 kts | 87° |
| 2026-05-04 16:54 | 25.78773 | -80.28513 | 26 ft | 21 kts | 64° |
| 2026-05-04 16:55 | 25.78870 | -80.28362 | 28 ft | 6 kts | 51° |
| 2026-05-04 16:55 | 25.78956 | -80.28246 | 29 ft | 12 kts | 50° |
| 2026-05-04 16:56 | 25.79040 | -80.28128 | 28 ft | 10 kts | 54° |
| 2026-05-04 16:56 | 25.79140 | -80.28045 | 27 ft | 4 kts | 1° |
| 2026-05-04 16:57 | 25.79165 | -80.28062 | 28 ft | 5 kts | 310° |
| 2026-05-04 16:57 | 25.79181 | -80.28093 | 28 ft | 0 kts | 300° |